^^
Grace C. Lehan Memorial Weather Station Historical Data
Daily Summary for May 24, 2021 Units:  English    Metric   Both
Daily Weekly Monthly Yearly
  High: Low: Average:
Temperature: 80.1 °F 51.7 °F 67.4 °F
Dew Point: 58.3 °F 49.2 °F 53 °F
Humidity: 92% 36.7% 63%
Wind Speed: 2.2mph 0mph 0.2mph
Wind Gust: 12mph - -
Wind- - SE
Pressure: 30.38 in 30.27 in -
Precipitation: 0.00 in    
 
 
Tabular Data for May 24, 2021
Time Temperature Dew Point Pressure Wind Wind Speed Wind Gust Humidity Rainfall Rate (Hourly) solar
00:04 58.3 °F 52.2 °F 30.27 in Calm     80% 0.00 in 0 W/m2
00:09 58.2 °F 52.4 °F 30.27 in Calm     80.9% 0.00 in 0 W/m2
00:14 58.1 °F 52.3 °F 30.28 in Calm     81% 0.00 in 0 W/m2
00:19 58 °F 52.2 °F 30.28 in Calm     81% 0.00 in 0 W/m2
00:24 57.9 °F 52.4 °F 30.28 in Calm     82% 0.00 in 0 W/m2
00:29 57.7 °F 52.5 °F 30.28 in Calm     82.8% 0.00 in 0 W/m2
00:34 57.5 °F 52.4 °F 30.28 in Calm     83% 0.00 in 0 W/m2
00:39 57.4 °F 52.3 °F 30.28 in Calm     83% 0.00 in 0 W/m2
00:44 57.2 °F 52.1 °F 30.28 in Calm     83% 0.00 in 0 W/m2
00:49 57 °F 52.2 °F 30.28 in Calm     83.7% 0.00 in 0 W/m2
00:54 56.8 °F 52.1 °F 30.28 in Calm     84% 0.00 in 0 W/m2
00:59 56.7 °F 51.9 °F 30.28 in Calm     84% 0.00 in 0 W/m2
01:04 56.5 °F 51.8 °F 30.28 in Calm     84.3% 0.00 in 0 W/m2
01:09 56.4 °F 52 °F 30.28 in Calm     85% 0.00 in 0 W/m2
01:14 56.3 °F 51.9 °F 30.29 in Calm     85% 0.00 in 0 W/m2
01:19 56.2 °F 51.8 °F 30.29 in Calm     85% 0.00 in 0 W/m2
01:24 56.2 °F 51.7 °F 30.29 in Calm     85% 0.00 in 0 W/m2
01:29 56 °F 51.6 °F 30.29 in Calm     85% 0.00 in 0 W/m2
01:34 56 °F 51.6 °F 30.29 in Calm     85.3% 0.00 in 0 W/m2
01:39 55.9 °F 51.7 °F 30.29 in Calm     86% 0.00 in 0 W/m2
01:44 55.8 °F 51.6 °F 30.29 in Calm     86% 0.00 in 0 W/m2
01:49 55.7 °F 51.6 °F 30.29 in Calm     86% 0.00 in 0 W/m2
01:54 55.6 °F 51.5 °F 30.30 in Calm     86% 0.00 in 0 W/m2
01:59 55.5 °F 51.5 °F 30.30 in Calm     86.3% 0.00 in 0 W/m2
02:04 55.4 °F 51.6 °F 30.29 in Calm     87% 0.00 in 0 W/m2
02:09 55.3 °F 51.4 °F 30.30 in Calm     86.7% 0.00 in 0 W/m2
02:14 55.1 °F 51 °F 30.30 in Calm     86.1% 0.00 in 0 W/m2
02:19 55 °F 51.2 °F 30.30 in Calm     87% 0.00 in 0 W/m2
02:24 54.9 °F 51.1 °F 30.30 in Calm     87% 0.00 in 0 W/m2
02:29 54.8 °F 51 °F 30.30 in Calm     87% 0.00 in 0 W/m2
02:34 54.7 °F 50.9 °F 30.30 in Calm     87% 0.00 in 0 W/m2
02:39 54.6 °F 50.8 °F 30.30 in Calm     87% 0.00 in 0 W/m2
02:44 54.5 °F 50.7 °F 30.30 in Calm     87% 0.00 in 0 W/m2
02:49 54.4 °F 50.6 °F 30.30 in Calm     87% 0.00 in 0 W/m2
02:54 54.3 °F 50.5 °F 30.30 in Calm     87% 0.00 in 0 W/m2
02:59 54.2 °F 50.4 °F 30.30 in Calm     87.2% 0.00 in 0 W/m2
03:04 54 °F 50.3 °F 30.30 in Calm     87% 0.00 in 0 W/m2
03:09 53.9 °F 50.3 °F 30.30 in Calm     87.7% 0.00 in 0 W/m2
03:14 53.8 °F 50.3 °F 30.31 in Calm     88% 0.00 in 0 W/m2
03:19 53.7 °F 50.3 °F 30.31 in Calm     88% 0.00 in 0 W/m2
03:24 53.6 °F 50.1 °F 30.31 in Calm     88% 0.00 in 0 W/m2
03:29 53.5 °F 50 °F 30.30 in Calm     88% 0.00 in 0 W/m2
03:34 53.4 °F 50 °F 30.31 in Calm     88.2% 0.00 in 0 W/m2
03:39 53.3 °F 50.2 °F 30.31 in Calm     89% 0.00 in 0 W/m2
03:44 53.2 °F 50.1 °F 30.31 in Calm     89% 0.00 in 0 W/m2
03:49 53.2 °F 50 °F 30.31 in Calm     89% 0.00 in 0 W/m2
03:54 53.1 °F 50 °F 30.31 in Calm     89% 0.00 in 0 W/m2
03:59 53 °F 49.9 °F 30.31 in Calm     89% 0.00 in 0 W/m2
04:09 52.9 °F 50 °F 30.30 in Calm     90% 0.00 in 0 W/m2
04:14 52.8 °F 49.9 °F 30.31 in Calm     90% 0.00 in 0 W/m2
04:19 52.7 °F 49.9 °F 30.31 in Calm     90% 0.00 in 0 W/m2
04:24 52.6 °F 49.8 °F 30.31 in Calm     90% 0.00 in 0 W/m2
04:29 52.6 °F 49.7 °F 30.31 in Calm     90% 0.00 in 0 W/m2
04:34 52.5 °F 49.6 °F 30.31 in Calm     90% 0.00 in 0 W/m2
04:39 52.4 °F 49.6 °F 30.31 in Calm     90% 0.00 in 0 W/m2
04:44 52.3 °F 49.5 °F 30.32 in Calm     90% 0.00 in 0 W/m2
04:49 52.3 °F 49.5 °F 30.32 in Calm     90% 0.00 in 0 W/m2
04:54 52.2 °F 49.4 °F 30.32 in Calm     90% 0.00 in 0 W/m2
04:59 52.2 °F 49.3 °F 30.33 in Calm     90% 0.00 in 0 W/m2
05:04 52.1 °F 49.2 °F 30.33 in Calm     90% 0.00 in 0 W/m2
05:09 52 °F 49.2 °F 30.33 in Calm     90% 0.00 in 0 W/m2
05:14 51.9 °F 49.3 °F 30.33 in Calm     90.7% 0.00 in 0 W/m2
05:19 51.9 °F 49.3 °F 30.34 in Calm     91% 0.00 in 0 W/m2
05:24 51.8 °F 49.3 °F 30.34 in Calm     91% 0.00 in 0 W/m2
05:29 51.8 °F 49.3 °F 30.34 in Calm     91% 0.00 in 5 W/m2
05:34 51.8 °F 49.3 °F 30.34 in Calm     91% 0.00 in 7 W/m2
05:39 51.8 °F 49.3 °F 30.35 in Calm     91% 0.00 in 9 W/m2
05:44 51.7 °F 49.2 °F 30.35 in Calm     91% 0.00 in 11 W/m2
05:49 51.7 °F 49.2 °F 30.35 in Calm     91% 0.00 in 12 W/m2
05:54 51.7 °F 49.2 °F 30.35 in Calm     91% 0.00 in 16 W/m2
05:59 51.7 °F 49.2 °F 30.35 in Calm     91% 0.00 in 16 W/m2
06:04 51.8 °F 49.4 °F 30.35 in Calm     91.5% 0.00 in 18 W/m2
06:09 51.9 °F 49.7 °F 30.35 in Calm     92% 0.00 in 18 W/m2
06:14 52 °F 49.8 °F 30.36 in Calm     92% 0.00 in 19 W/m2
06:19 52.1 °F 49.9 °F 30.36 in Calm     92% 0.00 in 21 W/m2
06:24 52.3 °F 50 °F 30.36 in Calm     92% 0.00 in 23 W/m2
06:29 52.5 °F 50.2 °F 30.36 in Calm     92% 0.00 in 32 W/m2
06:34 52.7 °F 50.4 °F 30.36 in Calm     92% 0.00 in 42 W/m2
06:39 53 °F 50.8 °F 30.36 in Calm     92% 0.00 in 47 W/m2
06:44 53.4 °F 51.1 °F 30.36 in Calm     92% 0.00 in 54 W/m2
06:49 54 °F 51.7 °F 30.36 in Calm     92% 0.00 in 65 W/m2
06:54 54.7 °F 52.4 °F 30.37 in Calm     91.8% 0.00 in 67 W/m2
06:59 55.6 °F 52.5 °F 30.37 in NNE 0.2 mph 2 mph 89.4% 0.00 in 69 W/m2
07:04 56.5 °F 52.7 °F 30.37 in Calm   2 mph 87% 0.00 in 70 W/m2
07:09 57.4 °F 53.1 °F 30.37 in Calm     85.5% 0.00 in 72 W/m2
07:14 58.3 °F 53.4 °F 30.37 in Calm     83.4% 0.00 in 74 W/m2
07:19 59.2 °F 53.2 °F 30.37 in Calm   1 mph 80.5% 0.00 in 74 W/m2
07:24 59.9 °F 53.4 °F 30.37 in Calm   1 mph 79.1% 0.00 in 192 W/m2
07:29 60.7 °F 53.6 °F 30.38 in NNE 0.2 mph 2 mph 77.6% 0.00 in 346 W/m2
07:34 61.5 °F 54.1 °F 30.37 in Calm   2 mph 76.8% 0.00 in 366 W/m2
07:39 62.2 °F 54.3 °F 30.38 in Calm     75.2% 0.00 in 383 W/m2
07:44 62.9 °F 54.4 °F 30.38 in Calm   1 mph 73.8% 0.00 in 408 W/m2
07:49 63.3 °F 54.1 °F 30.38 in Calm   1 mph 72.1% 0.00 in 425 W/m2
07:54 63.6 °F 54.1 °F 30.37 in Calm   1 mph 71.1% 0.00 in 441 W/m2
07:59 64.1 °F 54.2 °F 30.38 in NNE 0.1 mph 3 mph 70.1% 0.00 in 459 W/m2
08:00 64.3 °F 53.9 °F 30.37 in Calm   3 mph 69% 0.00 in 459 W/m2
08:09 65.2 °F 54.2 °F 30.38 in Calm     67.6% 0.00 in 489 W/m2
08:14 65.7 °F 54.1 °F 30.38 in Calm     66.1% 0.00 in 508 W/m2
08:19 66.5 °F 55.2 °F 30.37 in Calm     67.1% 0.00 in 526 W/m2
08:24 67.3 °F 54.8 °F 30.37 in NNE 0.3 mph 2 mph 64.2% 0.00 in 541 W/m2
08:29 67.6 °F 54.8 °F 30.38 in NNE 0.2 mph 2 mph 63.4% 0.00 in 559 W/m2
08:34 67.9 °F 54.6 °F 30.38 in NNE 0.4 mph 4 mph 62.6% 0.00 in 573 W/m2
08:39 67.9 °F 54.2 °F 30.38 in Calm   4 mph 61.6% 0.00 in 591 W/m2
08:44 68 °F 54.9 °F 30.38 in Calm   4 mph 62.8% 0.00 in 606 W/m2
08:49 68.5 °F 55.2 °F 30.38 in Calm   4 mph 62.3% 0.00 in 622 W/m2
08:54 69.1 °F 55.5 °F 30.38 in Calm   4 mph 61.9% 0.00 in 636 W/m2
08:59 69.6 °F 55.8 °F 30.38 in Calm   4 mph 61.5% 0.00 in 652 W/m2
09:04 70.1 °F 56.3 °F 30.38 in Calm   4 mph 61.6% 0.00 in 666 W/m2
09:09 70.5 °F 56.5 °F 30.38 in Calm     61.2% 0.00 in 682 W/m2
09:14 71 °F 56.9 °F 30.38 in Calm     60.9% 0.00 in 691 W/m2
09:19 71.5 °F 56.8 °F 30.38 in NNE 0.3 mph 3 mph 59.6% 0.00 in 707 W/m2
09:24 71.8 °F 56 °F 30.38 in Calm   3 mph 57.4% 0.00 in 722 W/m2
09:29 72.1 °F 56.2 °F 30.38 in NNE 0.1 mph 3 mph 57.3% 0.00 in 738 W/m2
09:34 72.8 °F 56.6 °F 30.38 in Calm   3 mph 57% 0.00 in 754 W/m2
09:39 73.3 °F 57 °F 30.38 in Calm     56.6% 0.00 in 763 W/m2
09:44 73.5 °F 56.7 °F 30.38 in Calm     55.7% 0.00 in 777 W/m2
09:49 73.8 °F 57.8 °F 30.38 in NNE 0.1 mph 2 mph 57.3% 0.00 in 791 W/m2
09:54 74.4 °F 58.3 °F 30.38 in NNE 0.3 mph 3 mph 57.1% 0.00 in 803 W/m2
09:59 75.1 °F 58 °F 30.38 in NE 0.8 mph 5 mph 55.3% 0.00 in 817 W/m2
10:04 75.7 °F 57.9 °F 30.38 in NE 0.1 mph 5 mph 54% 0.00 in 835 W/m2
10:09 76.2 °F 57.7 °F 30.38 in NE 0.1 mph 2 mph 52.7% 0.00 in 844 W/m2
10:14 76.3 °F 56.2 °F 30.38 in Calm   2 mph 49.7% 0.00 in 851 W/m2
10:19 76.5 °F 56.8 °F 30.37 in Calm   2 mph 50.6% 0.00 in 858 W/m2
10:24 77.1 °F 57.7 °F 30.37 in NE 0.4 mph 3 mph 51.2% 0.00 in 867 W/m2
10:29 77.7 °F 58 °F 30.37 in Calm   3 mph 50.8% 0.00 in 875 W/m2
10:34 77.8 °F 58.1 °F 30.37 in NE 0.3 mph 3 mph 50.7% 0.00 in 882 W/m2
10:39 78 °F 57.1 °F 30.37 in ESE 0.2 mph 4 mph 48.7% 0.00 in 886 W/m2
10:44 78.1 °F 56.4 °F 30.37 in Calm   4 mph 47.3% 0.00 in 898 W/m2
10:49 78.2 °F 57.5 °F 30.37 in ESE 0.5 mph 4 mph 49.1% 0.00 in 905 W/m2
10:54 78.2 °F 56 °F 30.37 in East 0.7 mph 4 mph 46.3% 0.00 in 918 W/m2
10:59 78.3 °F 56.1 °F 30.37 in ENE 0.5 mph 4 mph 46.5% 0.00 in 919 W/m2
11:04 78.4 °F 55.2 °F 30.37 in ENE 0.1 mph 4 mph 44.7% 0.00 in 930 W/m2
11:09 78.5 °F 55.5 °F 30.37 in East 0.7 mph 6 mph 45.1% 0.00 in 940 W/m2
11:14 78.4 °F 53.2 °F 30.37 in ENE 1 mph 6 mph 41.6% 0.00 in 946 W/m2
11:19 78.8 °F 53.6 °F 30.36 in ENE 1.6 mph 6 mph 41.7% 0.00 in 951 W/m2
11:24 79.2 °F 52.9 °F 30.36 in East 1.1 mph 6 mph 40.1% 0.00 in 954 W/m2
11:29 79.1 °F 52.1 °F 30.36 in ESE 0.5 mph 6 mph 39.1% 0.00 in 954 W/m2
11:34 78.7 °F 52.5 °F 30.36 in ESE 0.2 mph 6 mph 40.2% 0.00 in 963 W/m2
11:39 78.5 °F 53.6 °F 30.36 in South 0.6 mph 6 mph 42.2% 0.00 in 970 W/m2
11:44 78.5 °F 53.8 °F 30.36 in ESE 1.1 mph 6 mph 42.4% 0.00 in 983 W/m2
11:49 78.5 °F 52.9 °F 30.36 in SE 1.5 mph 6 mph 41.2% 0.00 in 997 W/m2
11:54 78.3 °F 53.6 °F 30.36 in SW 0.2 mph 6 mph 42.4% 0.00 in 1007 W/m2
11:59 78.6 °F 54.3 °F 30.36 in East 0.7 mph 6 mph 43% 0.00 in 1005 W/m2
12:00 78.9 °F 55.2 °F 30.36 in Calm   6 mph 44% 0.00 in 990 W/m2
12:09 79.5 °F 54.5 °F 30.36 in East 0.4 mph 3 mph 42.1% 0.00 in 1016 W/m2
12:14 79.6 °F 53.8 °F 30.36 in ESE 0.9 mph 5 mph 40.9% 0.00 in 1005 W/m2
12:19 79.5 °F 53.3 °F 30.36 in ESE 0.4 mph 5 mph 40.3% 0.00 in 1009 W/m2
12:24 79.5 °F 53.3 °F 30.36 in ESE 0.1 mph 5 mph 40.3% 0.00 in 1011 W/m2
12:29 79.4 °F 51.4 °F 30.36 in SE 1.2 mph 12 mph 37.7% 0.00 in 1014 W/m2
12:34 79.1 °F 51.8 °F 30.36 in ENE 1.6 mph 12 mph 38.7% 0.00 in 1030 W/m2
12:39 79.3 °F 52.2 °F 30.36 in ENE 2.2 mph 7 mph 38.9% 0.00 in 1020 W/m2
12:44 79.5 °F 51.4 °F 30.35 in SE 0.9 mph 7 mph 37.6% 0.00 in 1016 W/m2
12:49 79.5 °F 51.8 °F 30.35 in SW 0.5 mph 7 mph 38.2% 0.00 in 1016 W/m2
12:54 79.5 °F 53 °F 30.35 in SW 0.4 mph 7 mph 39.8% 0.00 in 1014 W/m2
12:59 79.4 °F 52.2 °F 30.36 in SSW 0.3 mph 7 mph 38.8% 0.00 in 1018 W/m2
13:04 79.5 °F 52.2 °F 30.36 in SE 0.3 mph 7 mph 38.7% 0.00 in 1018 W/m2
13:09 79.6 °F 51.8 °F 30.35 in SSW 1.3 mph 5 mph 38.1% 0.00 in 1018 W/m2
13:14 79.8 °F 52.6 °F 30.35 in WSW 0.4 mph 5 mph 38.9% 0.00 in 1032 W/m2
13:19 80 °F 51.9 °F 30.36 in SSE 0.9 mph 5 mph 37.7% 0.00 in 1028 W/m2
13:24 79.6 °F 50.8 °F 30.35 in ESE 0.5 mph 5 mph 36.7% 0.00 in 1014 W/m2
13:29 79.3 °F 52 °F 30.35 in SSW 0.4 mph 5 mph 38.7% 0.00 in 1013 W/m2
13:34 79.6 °F 53.1 °F 30.35 in West 1.3 mph 5 mph 39.9% 0.00 in 1007 W/m2
13:39 80 °F 52.3 °F 30.35 in SE 0.6 mph 5 mph 38.3% 0.00 in 1007 W/m2
13:44 79.8 °F 52.8 °F 30.35 in ESE 0.5 mph 5 mph 39.2% 0.00 in 1002 W/m2
13:49 79.8 °F 52.1 °F 30.35 in SSE 0.6 mph 5 mph 38.3% 0.00 in 1004 W/m2
13:54 79.8 °F 53.3 °F 30.34 in SSW 0.5 mph 5 mph 39.9% 0.00 in 1000 W/m2
13:59 80 °F 53.2 °F 30.35 in South 0.1 mph 5 mph 39.6% 0.00 in 995 W/m2
14:04 80 °F 54.3 °F 30.35 in South 0.4 mph 5 mph 41.1% 0.00 in 1005 W/m2
14:09 80.1 °F 54.7 °F 30.34 in SE 0.9 mph 4 mph 41.7% 0.00 in 1009 W/m2
14:14 79.8 °F 53.8 °F 30.35 in SE 1.4 mph 6 mph 40.6% 0.00 in 990 W/m2
14:19 79.5 °F 53.2 °F 30.35 in ESE 0.2 mph 6 mph 40.1% 0.00 in 1035 W/m2
14:24 79.5 °F 54.8 °F 30.35 in SE 0.2 mph 6 mph 42.6% 0.00 in 998 W/m2
14:29 79.4 °F 53.7 °F 30.35 in SE 0.3 mph 6 mph 41.1% 0.00 in 974 W/m2
14:34 79.2 °F 53.9 °F 30.34 in SE 0.5 mph 6 mph 41.7% 0.00 in 972 W/m2
14:39 79.1 °F 53.6 °F 30.33 in ESE 1.6 mph 12 mph 41.2% 0.00 in 947 W/m2
14:44 78.9 °F 53.9 °F 30.33 in ESE 0.6 mph 12 mph 42% 0.00 in 940 W/m2
14:49 79 °F 53.9 °F 30.34 in SSW 0.5 mph 12 mph 42% 0.00 in 933 W/m2
14:54 79 °F 53.7 °F 30.34 in SE 0.4 mph 12 mph 41.6% 0.00 in 928 W/m2
14:59 79 °F 53.3 °F 30.34 in SSE 0.4 mph 12 mph 41% 0.00 in 916 W/m2
15:04 78.9 °F 53.4 °F 30.34 in SSE 0.7 mph 12 mph 41.3% 0.00 in 912 W/m2
15:09 78.7 °F 53.2 °F 30.34 in SE 0.2 mph 3 mph 41.3% 0.00 in 902 W/m2
15:14 78.6 °F 53.5 °F 30.34 in SSW 0.4 mph 4 mph 41.9% 0.00 in 893 W/m2
15:19 78.6 °F 54.1 °F 30.34 in South 1 mph 6 mph 42.8% 0.00 in 893 W/m2
15:24 78.4 °F 53.7 °F 30.33 in ESE 0.9 mph 6 mph 42.5% 0.00 in 881 W/m2
15:29 77.9 °F 54 °F 30.33 in ESE 0.5 mph 6 mph 43.6% 0.00 in 860 W/m2
15:34 77.7 °F 53.8 °F 30.33 in ESE 0.7 mph 6 mph 43.5% 0.00 in 851 W/m2
15:39 77.7 °F 54.3 °F 30.33 in ESE 0.9 mph 5 mph 44.3% 0.00 in 840 W/m2
15:44 77.7 °F 54.2 °F 30.33 in ESE 0.5 mph 6 mph 44.2% 0.00 in 831 W/m2
15:49 77.6 °F 53.7 °F 30.33 in ESE 0.1 mph 6 mph 43.5% 0.00 in 817 W/m2
15:54 77.7 °F 54.4 °F 30.33 in ESE 0.2 mph 6 mph 44.5% 0.00 in 807 W/m2
15:59 77.9 °F 54.5 °F 30.33 in SE 0.2 mph 6 mph 44.4% 0.00 in 793 W/m2
16:00 77.9 °F 54.9 °F 30.33 in Calm   6 mph 45% 0.00 in 780 W/m2
16:09 77.8 °F 54.3 °F 30.33 in East 0.2 mph 2 mph 44.2% 0.00 in 766 W/m2
16:14 77.6 °F 53.6 °F 30.33 in ESE 0.5 mph 3 mph 43.4% 0.00 in 758 W/m2
16:19 77.1 °F 53.7 °F 30.32 in SE 0.6 mph 3 mph 44.2% 0.00 in 747 W/m2
16:24 76.8 °F 53.9 °F 30.32 in SSE 0.2 mph 6 mph 45% 0.00 in 40 W/m2
16:29 76.5 °F 53.4 °F 30.32 in SE 0.5 mph 6 mph 44.6% 0.00 in 39 W/m2
16:34 76.2 °F 53.3 °F 30.32 in SSE 0.3 mph 6 mph 44.9% 0.00 in 39 W/m2
16:39 75.9 °F 53 °F 30.31 in SSW 0.4 mph 5 mph 44.9% 0.00 in 37 W/m2
16:44 75.7 °F 53.1 °F 30.31 in SSW 0.7 mph 5 mph 45.4% 0.00 in 37 W/m2
16:49 75.7 °F 53.3 °F 30.31 in SSE 0.4 mph 5 mph 45.7% 0.00 in 37 W/m2
16:54 75.7 °F 53.3 °F 30.30 in South 0.1 mph 5 mph 45.8% 0.00 in 35 W/m2
16:59 75.6 °F 53.3 °F 30.30 in SW 0.1 mph 5 mph 45.9% 0.00 in 35 W/m2
17:04 75.5 °F 52.9 °F 30.31 in SW 0.1 mph 5 mph 45.3% 0.00 in 35 W/m2
17:09 75.5 °F 52.9 °F 30.30 in SE 0.6 mph 3 mph 45.4% 0.00 in 35 W/m2
17:14 75.3 °F 53.2 °F 30.30 in ESE 0.3 mph 3 mph 46.1% 0.00 in 33 W/m2
17:19 75.3 °F 53 °F 30.30 in East 0.5 mph 3 mph 45.8% 0.00 in 33 W/m2
17:24 75.2 °F 52.8 °F 30.30 in Calm   3 mph 45.7% 0.00 in 33 W/m2
17:29 75.1 °F 52.7 °F 30.30 in Calm   3 mph 45.5% 0.00 in 32 W/m2
17:34 75.1 °F 52.6 °F 30.30 in SE 0.4 mph 3 mph 45.5% 0.00 in 32 W/m2
17:39 75.1 °F 52 °F 30.29 in SE 1.1 mph 5 mph 44.4% 0.00 in 32 W/m2
17:44 75 °F 51.9 °F 30.29 in SSE 0.1 mph 5 mph 44.4% 0.00 in 32 W/m2
17:49 75 °F 52.3 °F 30.29 in SE 0.3 mph 5 mph 45.2% 0.00 in 30 W/m2
17:54 74.9 °F 52 °F 30.29 in ESE 0.1 mph 5 mph 44.8% 0.00 in 30 W/m2
17:59 74.8 °F 51.7 °F 30.29 in ESE 0.1 mph 5 mph 44.5% 0.00 in 30 W/m2
18:04 74.6 °F 51.9 °F 30.29 in ESE 0.2 mph 5 mph 45% 0.00 in 30 W/m2
18:09 74.3 °F 52 °F 30.29 in SE 0.3 mph 5 mph 45.7% 0.00 in 30 W/m2
18:14 74.1 °F 52.3 °F 30.29 in South 0.5 mph 5 mph 46.5% 0.00 in 28 W/m2
18:19 73.9 °F 52.8 °F 30.29 in South 0.3 mph 5 mph 47.7% 0.00 in 28 W/m2
18:24 73.6 °F 53.3 °F 30.29 in South 0.2 mph 5 mph 48.9% 0.00 in 28 W/m2
18:29 73.5 °F 54.1 °F 30.29 in ESE 1.2 mph 6 mph 50.7% 0.00 in 28 W/m2
18:34 73.3 °F 55 °F 30.29 in ESE 0.4 mph 6 mph 52.8% 0.00 in 26 W/m2
18:39 73.1 °F 55.6 °F 30.29 in SE 0.2 mph 3 mph 54.3% 0.00 in 26 W/m2
18:44 73 °F 55.9 °F 30.29 in SE 0.4 mph 4 mph 55% 0.00 in 26 W/m2
18:49 72.8 °F 56.2 °F 30.29 in SE 0.2 mph 4 mph 55.9% 0.00 in 25 W/m2
18:54 72.5 °F 56 °F 30.29 in South 0.6 mph 4 mph 56% 0.00 in 25 W/m2
18:59 72.2 °F 56 °F 30.29 in SE 0.5 mph 5 mph 56.7% 0.00 in 25 W/m2
19:04 71.9 °F 55.5 °F 30.29 in South 0.1 mph 5 mph 56.2% 0.00 in 23 W/m2
19:09 71.7 °F 55.5 °F 30.29 in South 0.2 mph 2 mph 56.7% 0.00 in 23 W/m2
19:14 71.5 °F 55.1 °F 30.29 in SSW 0.5 mph 9 mph 56.2% 0.00 in 23 W/m2
19:19 71.3 °F 54.7 °F 30.29 in South 0.1 mph 9 mph 55.8% 0.00 in 21 W/m2
19:24 71 °F 54.9 °F 30.30 in South 0.1 mph 9 mph 56.8% 0.00 in 21 W/m2
19:29 70.8 °F 54.9 °F 30.30 in Calm   9 mph 57.2% 0.00 in 19 W/m2
19:34 70.6 °F 54.6 °F 30.30 in Calm   9 mph 57% 0.00 in 19 W/m2
19:39 70.3 °F 54.9 °F 30.31 in South 0.3 mph 2 mph 58% 0.00 in 18 W/m2
19:44 70 °F 54.6 °F 30.31 in South 0.3 mph 3 mph 58% 0.00 in 18 W/m2
19:49 69.7 °F 54.4 °F 30.31 in South 0.2 mph 3 mph 58.2% 0.00 in 16 W/m2
19:54 69.5 °F 54.7 °F 30.31 in Calm   3 mph 59.3% 0.00 in 14 W/m2
19:59 69.3 °F 54.8 °F 30.31 in South 0.1 mph 3 mph 60% 0.00 in 12 W/m2
20:00 69.2 °F 54.7 °F 30.31 in Calm   3 mph 60% 0.00 in 11 W/m2
20:09 68.7 °F 54.3 °F 30.31 in Calm     60% 0.00 in 9 W/m2
20:14 68.5 °F 53.9 °F 30.31 in South 0.1 mph 1 mph 59.5% 0.00 in 5 W/m2
20:19 68.2 °F 53.8 °F 30.32 in South 0.3 mph 3 mph 60% 0.00 in 0 W/m2
20:24 67.9 °F 53.6 °F 30.32 in South 0.2 mph 3 mph 60.1% 0.00 in 0 W/m2
20:29 67.7 °F 53.6 °F 30.32 in Calm   3 mph 60.6% 0.00 in 0 W/m2
20:34 67.5 °F 53.6 °F 30.32 in Calm   3 mph 61% 0.00 in 0 W/m2
20:39 67.2 °F 53.7 °F 30.32 in Calm     61.9% 0.00 in 0 W/m2
20:44 67 °F 53.6 °F 30.32 in Calm     62% 0.00 in 0 W/m2
20:49 66.7 °F 53.5 °F 30.32 in Calm     62.3% 0.00 in 0 W/m2
20:54 66.5 °F 53.6 °F 30.32 in Calm     63% 0.00 in 0 W/m2
20:59 66.3 °F 53.5 °F 30.32 in Calm     63.4% 0.00 in 0 W/m2
21:04 66.1 °F 53.4 °F 30.33 in Calm     63.6% 0.00 in 0 W/m2
21:09 65.9 °F 53.4 °F 30.33 in Calm     64% 0.00 in 0 W/m2
21:14 65.7 °F 53.2 °F 30.33 in Calm     64% 0.00 in 0 W/m2
21:19 65.5 °F 53.1 °F 30.33 in Calm     64.2% 0.00 in 0 W/m2
21:24 65.4 °F 53.3 °F 30.33 in Calm     65% 0.00 in 0 W/m2
21:28 65.2 °F 53.2 °F 30.33 in Calm     65.1% 0.00 in 0 W/m2
Hartford County Weather
Compliments of Weather Underground - 2 mb